createdAt,value
2022-12-13T00:01:33.815Z,41.17
2022-12-13T00:04:03.537Z,40.80
2022-12-13T00:06:31.205Z,41.97
2022-12-13T00:08:58.769Z,39.30
2022-12-13T00:11:26.012Z,40.00
2022-12-13T00:13:53.093Z,41.60
2022-12-13T00:16:25.204Z,38.97
2022-12-13T00:18:55.850Z,42.10
2022-12-13T00:21:25.328Z,39.67
2022-12-13T00:23:52.403Z,40.77
2022-12-13T00:26:32.642Z,40.27
2022-12-13T00:29:01.200Z,39.13
2022-12-13T00:34:18.935Z,37.63
2022-12-13T00:36:46.618Z,38.53
2022-12-13T00:39:14.191Z,38.37
2022-12-13T00:41:41.666Z,38.50
2022-12-13T00:44:09.848Z,36.37
2022-12-13T00:46:36.888Z,36.03
2022-12-13T00:49:04.945Z,37.50
2022-12-13T00:51:34.167Z,35.97
2022-12-13T00:54:01.254Z,34.93
2022-12-13T00:56:30.179Z,34.83
2022-12-13T00:58:57.643Z,33.83
2022-12-13T01:01:29.402Z,34.13
2022-12-13T01:03:58.733Z,32.80
2022-12-13T01:06:25.474Z,34.03
2022-12-13T01:08:52.352Z,33.30
2022-12-13T01:11:19.247Z,33.53
2022-12-13T01:13:46.033Z,34.87
2022-12-13T01:16:13.337Z,32.10
2022-12-13T01:18:40.844Z,33.27
2022-12-13T01:21:13.154Z,31.87
2022-12-13T01:23:40.550Z,32.63
2022-12-13T01:26:13.298Z,30.07
2022-12-13T01:28:40.587Z,29.97
2022-12-13T01:31:10.779Z,31.13
2022-12-13T01:33:38.906Z,30.30
2022-12-13T01:36:08.786Z,32.20
2022-12-13T01:38:37.780Z,30.60
2022-12-13T01:41:17.223Z,30.43
2022-12-13T01:43:45.177Z,32.63
2022-12-13T01:46:12.970Z,32.07
2022-12-13T01:48:47.288Z,31.50
2022-12-13T01:51:18.244Z,30.63
2022-12-13T01:53:48.842Z,29.20
2022-12-13T01:56:21.975Z,31.23
2022-12-13T01:58:50.344Z,29.07
2022-12-13T02:01:17.893Z,30.20
2022-12-13T02:03:45.823Z,28.87
2022-12-13T02:06:17.613Z,30.33
2022-12-13T02:08:45.855Z,31.60
2022-12-13T02:11:15.565Z,30.30
2022-12-13T02:13:42.288Z,31.10
2022-12-13T02:16:47.062Z,33.03
2022-12-13T02:19:51.037Z,34.43
2022-12-13T02:22:31.098Z,42.40
2022-12-13T02:25:13.266Z,37.93
2022-12-13T02:28:31.173Z,31.80
2022-12-13T02:30:55.756Z,32.90
2022-12-13T02:33:29.288Z,33.27
2022-12-13T02:36:15.704Z,31.27
2022-12-13T02:39:17.763Z,31.00
2022-12-13T02:42:25.968Z,31.03
2022-12-13T02:45:04.035Z,31.10
2022-12-13T02:47:32.846Z,31.90
2022-12-13T02:50:05.818Z,30.50
2022-12-13T02:52:33.565Z,29.63
2022-12-13T02:55:00.420Z,29.10
2022-12-13T02:57:36.183Z,31.93
2022-12-13T03:00:34.319Z,32.27
2022-12-13T03:03:11.744Z,31.20
2022-12-13T03:06:09.375Z,28.97
2022-12-13T03:08:45.642Z,28.90
2022-12-13T03:11:15.854Z,29.53
2022-12-13T03:14:03.795Z,30.57
2022-12-13T03:16:43.889Z,30.40
2022-12-13T03:19:12.883Z,29.30
2022-12-13T03:21:47.254Z,29.23
2022-12-13T03:24:17.379Z,28.57
2022-12-13T03:26:44.603Z,29.03
2022-12-13T03:29:11.327Z,28.23
2022-12-13T03:31:38.094Z,30.80
2022-12-13T03:34:04.764Z,32.07
2022-12-13T03:36:31.754Z,30.17
2022-12-13T03:38:58.577Z,28.03
2022-12-13T03:41:33.879Z,30.07
2022-12-13T03:44:04.932Z,27.40
2022-12-13T03:46:31.818Z,27.67
2022-12-13T03:48:58.754Z,25.30
2022-12-13T03:51:25.572Z,26.07
2022-12-13T03:53:52.311Z,25.40
2022-12-13T03:56:19.032Z,25.47
2022-12-13T03:58:45.868Z,24.47
2022-12-13T04:01:15.216Z,27.80
2022-12-13T04:03:45.869Z,24.90
2022-12-13T04:06:21.975Z,26.50
2022-12-13T04:08:51.214Z,26.53
2022-12-13T04:11:42.577Z,24.30
2022-12-13T04:14:11.935Z,25.40
2022-12-13T04:16:39.210Z,25.45
2022-12-13T04:19:06.185Z,23.17
2022-12-13T04:21:32.874Z,23.20
2022-12-13T04:24:00.927Z,25.43
2022-12-13T04:26:28.376Z,25.50
2022-12-13T04:28:55.283Z,25.47
2022-12-13T04:31:22.238Z,24.60
2022-12-13T04:33:48.978Z,24.97
2022-12-13T04:36:31.511Z,24.50
2022-12-13T04:39:00.972Z,24.13
2022-12-13T04:41:33.828Z,24.30
2022-12-13T04:44:01.928Z,23.23
2022-12-13T04:46:28.643Z,25.77
2022-12-13T04:48:55.318Z,25.77
2022-12-13T04:51:22.136Z,27.23
2022-12-13T04:53:48.783Z,27.60
2022-12-13T04:56:15.545Z,28.00
2022-12-13T04:58:42.460Z,29.93
2022-12-13T05:01:11.286Z,25.77
2022-12-13T05:03:38.923Z,27.10
2022-12-13T05:06:26.677Z,27.23
2022-12-13T05:08:54.225Z,26.23
2022-12-13T05:11:22.998Z,27.53
2022-12-13T05:13:49.940Z,27.60
2022-12-13T05:16:16.822Z,27.23
2022-12-13T05:18:43.532Z,27.30
2022-12-13T05:21:11.844Z,25.50
2022-12-13T05:23:39.090Z,27.20
2022-12-13T05:26:05.934Z,27.17
2022-12-13T05:28:33.538Z,26.23
2022-12-13T05:31:23.126Z,26.83
2022-12-13T05:33:51.527Z,29.07
2022-12-13T05:36:18.478Z,27.23
2022-12-13T05:38:45.213Z,26.73
2022-12-13T05:41:16.807Z,26.37
2022-12-13T05:43:43.938Z,27.17
2022-12-13T05:46:12.613Z,26.87
2022-12-13T05:48:39.670Z,29.30
2022-12-13T05:51:11.071Z,27.93
2022-12-13T05:53:41.937Z,25.63
2022-12-13T05:56:10.892Z,25.70
2022-12-13T05:58:39.311Z,25.73
2022-12-13T06:01:11.976Z,27.17
2022-12-13T06:03:39.949Z,27.40
2022-12-13T06:06:08.760Z,26.57
2022-12-13T06:08:36.613Z,26.97
2022-12-13T06:11:10.676Z,26.33
2022-12-13T06:13:43.963Z,26.77
2022-12-13T06:16:22.920Z,25.27
2022-12-13T06:18:50.993Z,25.47
2022-12-13T06:21:18.618Z,24.87
2022-12-13T06:23:45.288Z,25.77
2022-12-13T06:26:11.978Z,24.87
2022-12-13T06:28:38.687Z,24.93
2022-12-13T06:31:06.097Z,26.57
2022-12-13T06:33:36.636Z,24.80
2022-12-13T06:36:05.021Z,26.13
2022-12-13T06:38:32.512Z,23.47
2022-12-13T06:41:14.492Z,25.00
2022-12-13T06:43:46.210Z,27.92
2022-12-13T06:46:13.657Z,27.40
2022-12-13T06:48:40.760Z,23.83
2022-12-13T06:51:08.471Z,27.83
2022-12-13T06:53:37.345Z,26.40
2022-12-13T06:56:05.975Z,27.10
2022-12-13T06:58:33.923Z,28.43
2022-12-13T07:01:24.438Z,27.30
2022-12-13T07:03:54.083Z,26.20
2022-12-13T07:06:22.943Z,26.97
2022-12-13T07:08:57.550Z,28.40
2022-12-13T07:11:30.419Z,25.63
2022-12-13T07:13:57.362Z,26.83
2022-12-13T07:16:24.767Z,26.47
2022-12-13T07:19:01.325Z,26.33
2022-12-13T07:21:29.347Z,27.23
2022-12-13T07:23:56.281Z,26.20
2022-12-13T07:26:23.432Z,26.03
2022-12-13T07:28:55.045Z,24.30
2022-12-13T07:31:24.164Z,25.70
2022-12-13T07:33:51.470Z,26.03
2022-12-13T07:36:21.458Z,24.43
2022-12-13T07:38:55.098Z,26.53
2022-12-13T07:41:23.963Z,25.03
2022-12-13T07:43:55.017Z,25.30
2022-12-13T07:46:31.803Z,24.37
2022-12-13T07:49:02.906Z,24.47
2022-12-13T07:51:29.713Z,23.67
2022-12-13T07:53:57.180Z,25.37
2022-12-13T07:56:23.878Z,26.00
2022-12-13T07:58:50.513Z,25.97
2022-12-13T08:01:18.436Z,26.80
2022-12-13T08:03:47.987Z,24.87
2022-12-13T08:06:15.038Z,25.77
2022-12-13T08:08:41.769Z,27.60
2022-12-13T08:11:10.945Z,28.70
2022-12-13T08:13:38.688Z,29.00
2022-12-13T08:16:26.176Z,28.53
2022-12-13T08:19:03.060Z,26.50
2022-12-13T08:22:01.813Z,28.23
2022-12-13T08:24:30.291Z,26.10
2022-12-13T08:27:02.416Z,27.17
2022-12-13T08:29:33.495Z,26.47
2022-12-13T08:32:08.089Z,27.00
2022-12-13T08:34:35.037Z,27.63
2022-12-13T08:37:04.001Z,27.97
2022-12-13T08:39:36.790Z,28.03
2022-12-13T08:42:16.458Z,27.97
2022-12-13T08:44:45.084Z,28.23
2022-12-13T08:47:11.728Z,26.47
2022-12-13T08:49:38.400Z,25.97
2022-12-13T08:52:05.140Z,29.23
2022-12-13T08:54:33.707Z,28.27
2022-12-13T08:57:00.557Z,28.23
2022-12-13T08:59:27.256Z,28.67
2022-12-13T09:01:55.173Z,25.97
2022-12-13T09:04:31.538Z,30.20
2022-12-13T09:07:01.648Z,28.97
2022-12-13T09:09:29.574Z,29.20
2022-12-13T09:11:59.277Z,28.83
2022-12-13T09:14:33.901Z,30.70
2022-12-13T09:17:02.839Z,29.90
2022-12-13T09:19:36.973Z,30.50
2022-12-13T09:22:05.361Z,31.60
2022-12-13T09:24:35.809Z,30.43
2022-12-13T09:27:09.688Z,34.13
2022-12-13T09:29:38.320Z,35.80
2022-12-13T09:32:05.486Z,33.27
2022-12-13T09:34:35.032Z,34.13
2022-12-13T09:37:02.056Z,33.73
2022-12-13T09:39:29.665Z,34.17
2022-12-13T09:42:01.210Z,34.80
2022-12-13T09:44:30.951Z,36.70
2022-12-13T09:47:03.236Z,39.63
2022-12-13T09:49:51.762Z,41.47
2022-12-13T09:52:21.800Z,38.73
2022-12-13T09:54:51.940Z,38.47
2022-12-13T09:57:32.540Z,38.23
2022-12-13T10:00:06.082Z,35.87
2022-12-13T10:02:37.850Z,37.10
2022-12-13T10:05:22.913Z,36.47
2022-12-13T10:07:54.005Z,38.03
2022-12-13T10:10:21.299Z,38.87
2022-12-13T10:12:56.003Z,39.10
2022-12-13T10:15:24.231Z,38.53
2022-12-13T10:17:55.303Z,40.67
2022-12-13T10:20:28.734Z,41.30
2022-12-13T10:23:31.252Z,43.90
2022-12-13T10:26:03.043Z,44.03
2022-12-13T10:28:33.241Z,42.30
2022-12-13T10:31:01.152Z,41.30
2022-12-13T10:33:31.593Z,40.37
2022-12-13T10:36:34.363Z,40.70
2022-12-13T10:39:02.660Z,40.60
2022-12-13T10:41:38.071Z,40.83
2022-12-13T10:44:25.211Z,44.00
2022-12-13T10:47:10.443Z,40.33
2022-12-13T10:49:46.349Z,41.03
2022-12-13T10:52:32.049Z,41.07
2022-12-13T10:55:23.716Z,42.50
2022-12-13T10:58:09.715Z,41.83
2022-12-13T11:00:45.540Z,40.80
2022-12-13T11:03:33.025Z,42.10
2022-12-13T11:06:15.772Z,38.80
2022-12-13T11:08:42.693Z,40.87
2022-12-13T11:11:10.978Z,39.33
2022-12-13T11:13:54.145Z,39.50
2022-12-13T11:16:26.206Z,38.80
2022-12-13T11:18:59.090Z,38.20
2022-12-13T11:21:28.686Z,38.07
2022-12-13T11:24:01.802Z,37.67
2022-12-13T11:26:30.886Z,38.73
2022-12-13T11:29:35.453Z,39.80
2022-12-13T11:32:22.386Z,40.10
2022-12-13T11:34:55.523Z,38.80
2022-12-13T11:37:42.240Z,37.43
2022-12-13T11:40:19.214Z,39.00
2022-12-13T11:43:27.566Z,36.43
2022-12-13T11:45:58.386Z,35.93
2022-12-13T11:48:41.268Z,37.23
2022-12-13T11:51:11.263Z,36.17
2022-12-13T11:54:00.464Z,36.73
2022-12-13T11:56:42.073Z,37.67
2022-12-13T11:59:29.754Z,36.43
2022-12-13T12:02:16.339Z,36.33
2022-12-13T12:04:59.746Z,37.03
2022-12-13T12:07:58.538Z,36.90
2022-12-13T12:10:34.662Z,35.00
2022-12-13T12:13:22.547Z,35.53
2022-12-13T12:16:02.207Z,36.60
2022-12-13T12:18:29.384Z,35.53
2022-12-13T12:21:49.611Z,35.13
2022-12-13T12:24:57.415Z,37.33
2022-12-13T12:27:50.894Z,36.57
2022-12-13T12:30:22.788Z,34.50
2022-12-13T12:33:12.694Z,35.60
2022-12-13T12:35:58.350Z,33.50
2022-12-13T12:38:54.217Z,36.10
2022-12-13T12:41:47.615Z,35.17
2022-12-13T12:44:37.102Z,35.50
2022-12-13T12:50:20.026Z,34.17
2022-12-13T12:52:59.938Z,33.30
2022-12-13T12:56:00.621Z,33.90
2022-12-13T12:58:33.711Z,32.10
2022-12-13T13:01:25.619Z,31.80
2022-12-13T13:04:01.600Z,32.23
2022-12-13T13:06:38.122Z,33.37
2022-12-13T13:09:07.946Z,33.27
2022-12-13T13:11:43.323Z,33.33
2022-12-13T13:14:33.240Z,32.03
2022-12-13T13:17:20.790Z,30.47
2022-12-13T13:19:49.170Z,31.37
2022-12-13T13:22:34.192Z,32.27
2022-12-13T13:25:19.144Z,31.80
2022-12-13T13:27:46.911Z,30.63
2022-12-13T13:30:25.228Z,33.10
2022-12-13T13:32:56.811Z,30.73
2022-12-13T13:35:32.577Z,31.90
2022-12-13T13:38:03.582Z,31.03
2022-12-13T13:40:34.514Z,32.83
2022-12-13T13:43:09.925Z,32.10
2022-12-13T13:45:52.150Z,33.60
2022-12-13T13:48:44.431Z,32.97
2022-12-13T13:51:22.811Z,31.33
2022-12-13T13:54:08.125Z,31.40
2022-12-13T13:57:02.868Z,31.03
2022-12-13T13:59:57.935Z,32.00
2022-12-13T14:02:34.115Z,31.77
2022-12-13T14:05:38.654Z,33.00
2022-12-13T14:08:42.273Z,31.50
2022-12-13T14:11:31.784Z,33.50
2022-12-13T14:14:39.080Z,32.83
2022-12-13T14:17:40.606Z,35.30
2022-12-13T14:20:43.127Z,34.23
2022-12-13T14:23:31.288Z,32.07
2022-12-13T14:26:07.141Z,33.83
2022-12-13T14:28:54.509Z,35.03
2022-12-13T14:31:25.526Z,33.77
2022-12-13T14:33:55.219Z,32.90
2022-12-13T14:36:35.168Z,32.70
2022-12-13T14:39:05.134Z,32.00
2022-12-13T14:41:31.954Z,32.87
2022-12-13T14:44:24.921Z,31.77
2022-12-13T14:47:04.455Z,31.63
2022-12-13T14:49:33.994Z,32.07
2022-12-13T14:52:07.296Z,31.17
2022-12-13T14:54:45.253Z,33.87
2022-12-13T14:57:18.267Z,34.10
2022-12-13T14:59:50.495Z,34.43
2022-12-13T15:02:31.285Z,33.30
2022-12-13T15:05:01.033Z,32.10
2022-12-13T15:07:32.650Z,31.63
2022-12-13T15:10:02.569Z,33.23
2022-12-13T15:12:30.373Z,33.37
2022-12-13T15:15:07.577Z,32.87
2022-12-13T15:17:40.109Z,31.50
2022-12-13T15:20:30.399Z,34.90
2022-12-13T15:23:07.128Z,33.97
2022-12-13T15:25:35.296Z,32.23
2022-12-13T15:28:03.129Z,34.07
2022-12-13T15:30:33.559Z,33.57
2022-12-13T15:33:04.795Z,35.25
2022-12-13T15:35:32.334Z,35.00
2022-12-13T15:37:59.165Z,34.43
2022-12-13T15:40:25.948Z,33.23
2022-12-13T15:42:53.082Z,36.07
2022-12-13T15:45:25.595Z,33.93
2022-12-13T15:47:54.127Z,37.20
2022-12-13T15:50:36.049Z,36.67
2022-12-13T15:53:05.954Z,36.23
2022-12-13T15:55:35.541Z,38.83
2022-12-13T15:58:03.136Z,36.20
2022-12-13T16:00:32.404Z,37.90
2022-12-13T16:03:14.951Z,39.60
2022-12-13T16:05:50.110Z,39.63
2022-12-13T16:08:38.581Z,39.33
2022-12-13T16:11:07.623Z,38.33
2022-12-13T16:13:37.356Z,37.20
2022-12-13T16:16:27.479Z,37.83
2022-12-13T16:18:55.553Z,36.07
2022-12-13T16:21:22.313Z,51.13
2022-12-13T16:23:49.299Z,53.97
2022-12-13T16:26:28.019Z,40.77
2022-12-13T16:28:58.585Z,37.77
2022-12-13T16:31:28.284Z,38.07
2022-12-13T16:33:55.000Z,39.27
2022-12-13T16:36:21.683Z,40.43
2022-12-13T16:38:48.390Z,38.40
2022-12-13T16:41:15.662Z,35.33
2022-12-13T16:43:58.187Z,36.53
2022-12-13T16:47:11.690Z,36.73
2022-12-13T16:49:26.948Z,35.93
2022-12-13T16:51:54.871Z,36.10
2022-12-13T16:54:23.662Z,37.03
2022-12-13T16:56:51.556Z,35.23
2022-12-13T16:59:22.351Z,34.43
2022-12-13T17:01:50.357Z,34.60
2022-12-13T17:04:21.294Z,34.20
2022-12-13T17:06:50.871Z,34.27
2022-12-13T17:09:18.907Z,36.07
2022-12-13T17:11:45.822Z,33.93
2022-12-13T17:14:12.643Z,35.00
2022-12-13T17:16:39.458Z,34.90
2022-12-13T17:19:06.211Z,35.57
2022-12-13T17:21:32.959Z,34.60
2022-12-13T17:24:01.591Z,34.27
2022-12-13T17:26:29.082Z,34.30
2022-12-13T17:28:56.249Z,34.10
2022-12-13T17:31:23.028Z,35.50
2022-12-13T17:33:49.855Z,35.30
2022-12-13T17:36:17.173Z,35.40
2022-12-13T17:38:47.527Z,35.10
2022-12-13T17:41:15.938Z,34.10
2022-12-13T17:43:43.700Z,34.83
2022-12-13T17:46:13.151Z,34.80
2022-12-13T17:48:41.469Z,34.40
2022-12-13T17:51:10.369Z,34.93
2022-12-13T17:53:39.299Z,34.33
2022-12-13T17:56:08.211Z,34.30
2022-12-13T17:58:35.510Z,34.03
2022-12-13T18:01:13.750Z,35.87
2022-12-13T18:03:40.735Z,38.07
2022-12-13T18:06:07.896Z,38.60
2022-12-13T18:08:36.404Z,35.77
2022-12-13T18:13:54.518Z,35.50
2022-12-13T18:16:22.922Z,35.63
2022-12-13T18:18:55.040Z,36.00
2022-12-13T18:21:24.570Z,37.53
2022-12-13T18:23:55.046Z,37.57
2022-12-13T18:26:23.617Z,35.93
2022-12-13T18:28:50.479Z,35.30
2022-12-13T18:31:20.202Z,36.23
2022-12-13T18:33:48.045Z,35.53
2022-12-13T18:36:16.592Z,37.87
2022-12-13T18:38:43.896Z,34.73
2022-12-13T18:41:14.861Z,35.33
2022-12-13T18:43:42.808Z,38.60
2022-12-13T18:46:10.564Z,36.80
2022-12-13T18:48:37.420Z,37.63
2022-12-13T18:51:06.363Z,38.07
2022-12-13T18:53:34.103Z,36.83
2022-12-13T18:56:02.395Z,34.37
2022-12-13T18:58:29.137Z,35.40
2022-12-13T19:00:57.422Z,34.73
2022-12-13T19:03:25.625Z,35.57
2022-12-13T19:05:55.842Z,36.40
2022-12-13T19:08:26.156Z,33.63
2022-12-13T19:10:55.592Z,35.53
2022-12-13T19:13:25.128Z,37.23
2022-12-13T19:15:53.483Z,33.70
2022-12-13T19:18:20.245Z,35.90
2022-12-13T19:20:48.815Z,34.10
2022-12-13T19:23:16.655Z,35.70
2022-12-13T19:25:43.659Z,37.37
2022-12-13T19:28:11.831Z,36.67
2022-12-13T19:30:39.609Z,35.77
2022-12-13T19:33:09.693Z,34.77
2022-12-13T19:35:36.789Z,36.67
2022-12-13T19:38:03.571Z,34.37
2022-12-13T19:40:30.351Z,35.40
2022-12-13T19:42:57.054Z,35.40
2022-12-13T19:45:23.815Z,34.50
2022-12-13T19:47:50.582Z,34.77
2022-12-13T19:50:17.627Z,35.17
2022-12-13T19:52:44.304Z,35.10
2022-12-13T19:55:11.082Z,39.30
2022-12-13T19:57:37.818Z,36.63
2022-12-13T20:00:05.684Z,38.50
2022-12-13T20:02:32.485Z,42.60
2022-12-13T20:04:59.178Z,41.73
2022-12-13T20:07:26.759Z,39.93
2022-12-13T20:09:53.575Z,38.37
2022-12-13T20:12:20.885Z,38.03
2022-12-13T20:14:47.556Z,35.60
2022-12-13T20:17:14.385Z,37.70
2022-12-13T20:19:41.151Z,36.90
2022-12-13T20:22:08.106Z,36.47
2022-12-13T20:24:34.795Z,35.60
2022-12-13T20:27:02.017Z,34.30
2022-12-13T20:29:28.751Z,36.63
2022-12-13T20:31:55.641Z,34.53
2022-12-13T20:34:22.586Z,36.37
2022-12-13T20:36:50.104Z,34.63
2022-12-13T20:39:17.078Z,36.20
2022-12-13T20:41:43.734Z,32.27
2022-12-13T20:44:12.827Z,35.77
2022-12-13T20:46:40.235Z,36.27
2022-12-13T20:49:09.004Z,34.63
2022-12-13T20:51:37.607Z,33.40
2022-12-13T20:54:05.081Z,32.97
2022-12-13T20:56:35.217Z,33.03
2022-12-13T20:59:03.025Z,33.37
2022-12-13T21:01:31.864Z,34.17
2022-12-13T21:04:01.620Z,35.97
2022-12-13T21:06:30.084Z,31.50
2022-12-13T21:09:02.725Z,32.60
2022-12-13T21:11:35.239Z,33.33
2022-12-13T21:14:09.104Z,33.33
2022-12-13T21:16:39.467Z,33.97
2022-12-13T21:19:07.193Z,33.67
2022-12-13T21:21:34.653Z,32.30
2022-12-13T21:24:03.101Z,33.37
2022-12-13T21:26:34.949Z,32.97
2022-12-13T21:29:04.316Z,31.13
2022-12-13T21:31:31.084Z,30.90
2022-12-13T21:34:00.159Z,30.37
2022-12-13T21:36:29.322Z,30.80
2022-12-13T21:38:58.116Z,33.60
2022-12-13T21:41:25.347Z,31.30
2022-12-13T21:43:52.190Z,32.03
2022-12-13T21:46:41.360Z,31.63
2022-12-13T21:49:14.730Z,33.17
2022-12-13T21:51:47.379Z,31.70
2022-12-13T21:54:14.848Z,30.50
2022-12-13T21:57:00.117Z,30.50
2022-12-13T21:59:29.939Z,30.83
2022-12-13T22:02:18.349Z,29.70
2022-12-13T22:04:49.722Z,29.37
2022-12-13T22:07:30.956Z,32.27
2022-12-13T22:09:59.276Z,31.80
2022-12-13T22:12:40.655Z,33.33
2022-12-13T22:15:10.746Z,30.17
2022-12-13T22:17:38.131Z,31.07
2022-12-13T22:20:10.205Z,32.27
2022-12-13T22:22:39.018Z,29.63
2022-12-13T22:25:07.425Z,31.20
2022-12-13T22:27:34.643Z,29.97
2022-12-13T22:30:01.391Z,29.30
2022-12-13T22:32:32.182Z,31.40
2022-12-13T22:34:59.089Z,29.33
2022-12-13T22:37:26.284Z,30.43
2022-12-13T22:39:54.000Z,29.57
2022-12-13T22:42:20.987Z,29.13
2022-12-13T22:44:48.175Z,30.37
2022-12-13T22:47:15.001Z,29.90
2022-12-13T22:49:41.723Z,28.40
2022-12-13T22:52:08.917Z,30.60
2022-12-13T22:54:36.037Z,31.10
2022-12-13T22:57:02.866Z,30.03
2022-12-13T22:59:29.814Z,30.00
2022-12-13T23:02:01.971Z,29.40
2022-12-13T23:04:30.162Z,30.13
2022-12-13T23:06:57.099Z,30.27
2022-12-13T23:09:23.846Z,30.63
2022-12-13T23:12:09.220Z,29.57
2022-12-13T23:14:35.909Z,29.07
2022-12-13T23:17:03.352Z,31.40
2022-12-13T23:19:48.866Z,30.50
2022-12-13T23:22:18.158Z,31.87
2022-12-13T23:24:44.968Z,31.53
2022-12-13T23:27:11.633Z,31.20
2022-12-13T23:29:38.394Z,30.63
2022-12-13T23:32:05.259Z,31.03
2022-12-13T23:34:32.317Z,29.57
2022-12-13T23:36:59.104Z,28.53
2022-12-13T23:39:25.813Z,29.30
2022-12-13T23:41:52.485Z,29.37
2022-12-13T23:44:19.287Z,29.30
2022-12-13T23:46:48.880Z,28.60
2022-12-13T23:49:16.093Z,29.80
2022-12-13T23:51:43.042Z,28.60
2022-12-13T23:54:14.587Z,30.13
2022-12-13T23:56:41.353Z,29.77
2022-12-13T23:59:08.087Z,28.37
